Time;durP1;ratioP1;P1;durP2;ratioP2;P2;SDS_P1;SDS_P2;PMS_P1;PMS_P2;Temp;Humidity;BMP_temperature;BMP_pressure;BME280_temperature;BME280_humidity;BME280_pressure;Samples;Min_cycle;Max_cycle;Signal;HPM_P1;HPM_P2
2023/06/30 00:01:50;;;;;;;;;;;;;;;20.53;100.00;99501.66;5073763;28;20281;-81
2023/06/30 00:04:16;;;;;;;;;;;;;;;20.38;100.00;99493.03;5073142;28;20392;-81
2023/06/30 00:06:42;;;;;;;;;;;;;;;20.41;100.00;99497.97;5073541;28;19920;-82
2023/06/30 00:09:07;;;;;;;;;;;;;;;20.37;100.00;99502.09;5073372;28;20368;-83
2023/06/30 00:11:33;;;;;;;;;;;;;;;20.35;100.00;99504.16;5073848;28;19974;-82
2023/06/30 00:13:58;;;;;;;;;;;;;;;20.32;100.00;99496.53;5073330;28;19917;-83
2023/06/30 00:16:23;;;;;;;;;;;;;;;20.34;100.00;99497.97;5073643;28;19927;-83
2023/06/30 00:18:49;;;;;;;;;;;;;;;20.29;100.00;99497.72;5073294;28;19926;-84
2023/06/30 00:21:14;;;;;;;;;;;;;;;20.01;100.00;99489.91;5073237;28;19923;-84
2023/06/30 00:23:39;;;;;;;;;;;;;;;20.08;100.00;99486.41;5073646;28;19920;-83
2023/06/30 00:26:04;;;;;;;;;;;;;;;20.11;100.00;99485.97;5072144;28;19920;-83
2023/06/30 00:28:30;;;;;;;;;;;;;;;20.02;100.00;99494.22;5073341;28;19920;-82
2023/06/30 00:30:55;;;;;;;;;;;;;;;20.06;100.00;99481.25;5073611;28;19920;-82
2023/06/30 00:33:23;;;;;;;;;;;;;;;20.08;100.00;99481.88;5071722;28;19916;-82
2023/06/30 00:35:48;;;;;;;;;;;;;;;20.12;100.00;99482.28;5072941;28;20360;-82
2023/06/30 00:38:13;;;;;;;;;;;;;;;20.10;100.00;99478.97;5071604;28;19939;-81
2023/06/30 00:40:39;;;;;;;;;;;;;;;20.10;100.00;99493.19;5073011;28;19942;-81
2023/06/30 00:43:04;;;;;;;;;;;;;;;20.11;100.00;99483.28;5072478;28;19963;-82
2023/06/30 00:45:29;;;;;;;;;;;;;;;20.09;100.00;99474.66;5073011;28;19959;-79
2023/06/30 00:47:55;;;;;;;;;;;;;;;19.96;100.00;99478.97;5073519;28;19923;-82
2023/06/30 00:50:21;;;;;;;;;;;;;;;19.89;100.00;99469.28;5070932;28;19924;-81
2023/06/30 00:52:48;;;;;;;;;;;;;;;19.70;100.00;99468.22;5073073;28;20265;-82
2023/06/30 00:55:14;;;;;;;;;;;;;;;19.82;100.00;99469.28;5071579;28;19916;-82
2023/06/30 00:57:39;;;;;;;;;;;;;;;19.85;100.00;99466.16;5071335;28;19980;-82
2023/06/30 01:00:10;;;;;;;;;;;;;;;19.84;100.00;99459.19;5068760;28;19920;-82
2023/06/30 01:02:37;;;;;;;;;;;;;;;19.85;100.00;99450.09;5070522;28;19927;-83
2023/06/30 01:05:06;;;;;;;;;;;;;;;19.83;100.00;99446.84;5071166;28;19917;-82
2023/06/30 01:07:43;;;;;;;;;;;;;;;19.87;100.00;99448.06;5072407;28;19926;-82
2023/06/30 01:10:10;;;;;;;;;;;;;;;19.80;100.00;99452.56;5072306;28;19916;-82
2023/06/30 01:12:35;;;;;;;;;;;;;;;19.88;100.00;99441.69;5071157;28;19916;-81
2023/06/30 01:15:01;;;;;;;;;;;;;;;19.92;100.00;99439.41;5072371;28;19923;-81
2023/06/30 01:17:27;;;;;;;;;;;;;;;19.90;100.00;99434.28;5072549;28;19917;-80
2023/06/30 01:19:54;;;;;;;;;;;;;;;19.91;100.00;99438.56;5072520;28;19923;-80
2023/06/30 01:22:39;;;;;;;;;;;;;;;19.94;100.00;99432.81;5070487;28;19920;-80
2023/06/30 01:25:08;;;;;;;;;;;;;;;19.94;100.00;99430.16;5079083;28;19923;-82
2023/06/30 01:27:36;;;;;;;;;;;;;;;19.95;100.00;99423.78;5072421;28;19995;-80
2023/06/30 01:30:05;;;;;;;;;;;;;;;20.01;100.00;99433.66;5072277;28;20006;-80
2023/06/30 01:32:31;;;;;;;;;;;;;;;19.91;100.00;99422.50;5068847;28;19916;-80
2023/06/30 01:34:56;;;;;;;;;;;;;;;19.83;100.00;99424.59;5071130;28;19962;-80
2023/06/30 01:37:22;;;;;;;;;;;;;;;19.73;100.00;99435.72;5071495;28;19916;-79
2023/06/30 01:39:48;;;;;;;;;;;;;;;19.74;100.00;99423.94;5070668;28;19916;-82
2023/06/30 01:42:14;;;;;;;;;;;;;;;19.78;100.00;99416.34;5071878;28;20560;-80
2023/06/30 01:44:39;;;;;;;;;;;;;;;19.75;100.00;99412.22;5071532;28;19916;-80
2023/06/30 01:47:06;;;;;;;;;;;;;;;19.80;100.00;99415.09;5070109;28;20002;-81
2023/06/30 01:49:32;;;;;;;;;;;;;;;19.84;100.00;99405.63;5070440;28;19919;-81
2023/06/30 01:51:59;;;;;;;;;;;;;;;19.79;100.00;99397.38;5070298;28;20010;-81
2023/06/30 01:54:24;;;;;;;;;;;;;;;19.80;100.00;99399.03;5070331;28;20011;-81
2023/06/30 01:56:51;;;;;;;;;;;;;;;19.84;100.00;99400.28;5069742;28;19913;-80
2023/06/30 01:59:16;;;;;;;;;;;;;;;19.88;100.00;99385.44;5069524;28;19929;-79
2023/06/30 02:01:42;;;;;;;;;;;;;;;19.91;100.00;99385.00;5070312;28;20388;-81
2023/06/30 02:04:09;;;;;;;;;;;;;;;19.93;100.00;99398.22;5069793;28;19951;-80
2023/06/30 02:06:34;;;;;;;;;;;;;;;19.96;100.00;99389.78;5070175;28;20288;-80
2023/06/30 02:09:00;;;;;;;;;;;;;;;19.99;100.00;99398.22;5071319;28;19920;-81
2023/06/30 02:11:25;;;;;;;;;;;;;;;20.01;100.00;99398.00;5071005;28;20396;-80
2023/06/30 02:13:50;;;;;;;;;;;;;;;19.98;100.00;99396.56;5070860;28;19916;-80
2023/06/30 02:16:16;;;;;;;;;;;;;;;20.02;100.00;99392.44;5069656;28;19916;-80
2023/06/30 02:18:41;;;;;;;;;;;;;;;20.00;100.00;99388.31;5071409;28;19924;-81
2023/06/30 02:21:06;;;;;;;;;;;;;;;19.96;100.00;99398.63;5069702;28;20279;-81
2023/06/30 02:23:32;;;;;;;;;;;;;;;19.95;100.00;99396.16;5071396;28;20303;-79
2023/06/30 02:25:58;;;;;;;;;;;;;;;19.93;100.00;99399.03;5067203;28;19916;-81
2023/06/30 02:28:24;;;;;;;;;;;;;;;19.90;100.00;99399.47;5069000;28;19946;-80
2023/06/30 02:30:51;;;;;;;;;;;;;;;19.93;100.00;99388.31;5069865;28;20287;-81
2023/06/30 02:33:16;;;;;;;;;;;;;;;19.91;100.00;99382.34;5069412;28;19928;-81
2023/06/30 02:35:41;;;;;;;;;;;;;;;19.94;100.00;99378.44;5071195;28;19963;-81
2023/06/30 02:38:07;;;;;;;;;;;;;;;19.92;100.00;99378.63;5069580;28;19923;-80
2023/06/30 02:40:32;;;;;;;;;;;;;;;19.93;100.00;99366.91;5071139;28;19926;-80
2023/06/30 02:42:58;;;;;;;;;;;;;;;19.90;100.00;99359.28;5069227;28;20003;-79
2023/06/30 02:45:23;;;;;;;;;;;;;;;19.85;100.00;99353.72;5070598;28;19920;-80
2023/06/30 02:47:50;;;;;;;;;;;;;;;19.80;100.00;99356.19;5069561;28;19927;-81
2023/06/30 02:50:15;;;;;;;;;;;;;;;19.80;100.00;99364.22;5063485;28;19917;-80
2023/06/30 02:52:41;;;;;;;;;;;;;;;19.78;100.00;99379.69;5069257;28;20003;-81
2023/06/30 02:55:06;;;;;;;;;;;;;;;19.73;100.00;99381.34;5066482;28;19956;-81
2023/06/30 02:57:32;;;;;;;;;;;;;;;19.68;100.00;99386.47;5065632;28;19973;-81
2023/06/30 02:59:57;;;;;;;;;;;;;;;19.62;100.00;99380.91;5065090;28;19917;-80
2023/06/30 03:02:23;;;;;;;;;;;;;;;19.60;100.00;99380.31;5069675;28;19916;-80
2023/06/30 03:04:48;;;;;;;;;;;;;;;19.61;100.00;99378.44;5069912;28;19916;-80
2023/06/30 03:07:16;;;;;;;;;;;;;;;19.54;100.00;99374.94;5069541;28;19924;-79
2023/06/30 03:09:42;;;;;;;;;;;;;;;19.45;100.00;99373.44;5070905;28;19922;-80
2023/06/30 03:12:07;;;;;;;;;;;;;;;19.49;100.00;99380.09;5070060;28;20348;-80
2023/06/30 03:14:33;;;;;;;;;;;;;;;19.50;100.00;99371.81;5069142;28;20019;-82
2023/06/30 03:16:58;;;;;;;;;;;;;;;19.49;100.00;99380.09;5069373;28;19916;-81
2023/06/30 03:19:24;;;;;;;;;;;;;;;19.22;100.00;99384.50;5071155;28;19924;-83
2023/06/30 03:21:49;;;;;;;;;;;;;;;19.09;100.00;99389.81;5074936;28;19920;-81
2023/06/30 03:24:14;;;;;;;;;;;;;;;18.93;100.00;99391.03;5071696;28;19939;-77
2023/06/30 03:26:40;;;;;;;;;;;;;;;18.84;100.00;99392.22;5073569;28;19995;-79
2023/06/30 03:29:14;;;;;;;;;;;;;;;18.94;100.00;99391.84;5072904;28;19968;-79
2023/06/30 03:31:39;;;;;;;;;;;;;;;19.00;100.00;99389.19;5074032;28;19920;-81
2023/06/30 03:34:06;;;;;;;;;;;;;;;19.07;100.00;99383.88;5072810;28;19960;-81
2023/06/30 03:36:31;;;;;;;;;;;;;;;19.06;100.00;99375.03;5074663;28;19920;-81
2023/06/30 03:38:56;;;;;;;;;;;;;;;19.06;100.00;99375.03;5074053;28;19986;-81
2023/06/30 03:41:22;;;;;;;;;;;;;;;19.05;100.00;99378.72;5072863;28;19924;-81
2023/06/30 03:43:47;;;;;;;;;;;;;;;18.68;100.00;99374.66;5074512;28;20015;-81
2023/06/30 03:46:13;;;;;;;;;;;;;;;18.56;100.00;99370.09;5073627;28;19927;-81
2023/06/30 03:48:38;;;;;;;;;;;;;;;18.59;100.00;99361.69;5074088;28;20022;-80
2023/06/30 03:51:04;;;;;;;;;;;;;;;18.64;100.00;99356.56;5072536;28;19916;-81
2023/06/30 03:53:29;;;;;;;;;;;;;;;18.70;100.00;99356.59;5074220;28;20380;-79
2023/06/30 03:55:58;;;;;;;;;;;;;;;18.54;100.00;99358.75;5072589;28;19923;-80
2023/06/30 03:58:24;;;;;;;;;;;;;;;18.56;100.00;99348.69;5072451;28;19927;-81
2023/06/30 04:00:50;;;;;;;;;;;;;;;18.53;100.00;99347.25;5073554;28;20296;-80
2023/06/30 04:03:15;;;;;;;;;;;;;;;18.44;100.00;99350.28;5073103;28;19916;-81
2023/06/30 04:05:40;;;;;;;;;;;;;;;18.54;100.00;99346.22;5073788;28;19916;-82
2023/06/30 04:08:06;;;;;;;;;;;;;;;18.57;100.00;99345.00;5073236;28;19924;-81
2023/06/30 04:10:32;;;;;;;;;;;;;;;18.62;100.00;99327.34;5073524;28;20346;-82
2023/06/30 04:12:57;;;;;;;;;;;;;;;18.66;100.00;99333.16;5073574;28;19965;-82
2023/06/30 04:15:22;;;;;;;;;;;;;;;18.74;100.00;99327.59;5073516;28;20006;-82
2023/06/30 04:17:48;;;;;;;;;;;;;;;18.73;100.00;99320.63;5073114;28;19916;-83
2023/06/30 04:20:15;;;;;;;;;;;;;;;18.83;100.00;99325.59;5072965;28;20280;-82
2023/06/30 04:22:41;;;;;;;;;;;;;;;18.90;100.00;99321.91;5073380;28;19916;-82
2023/06/30 04:25:06;;;;;;;;;;;;;;;18.92;100.00;99319.03;5072951;28;19916;-81
2023/06/30 04:27:32;;;;;;;;;;;;;;;18.86;100.00;99315.31;5073294;28;19916;-82
2023/06/30 04:29:57;;;;;;;;;;;;;;;18.89;100.00;99327.47;5073296;28;19916;-81
2023/06/30 04:32:22;;;;;;;;;;;;;;;18.91;100.00;99323.53;5072634;28;19924;-81
2023/06/30 04:34:48;;;;;;;;;;;;;;;18.95;100.00;99323.97;5072845;28;20407;-82
2023/06/30 04:39:42;;;;;;;;;;;;;;;18.83;100.00;99305.03;5070579;28;19921;-80
2023/06/30 04:42:07;;;;;;;;;;;;;;;18.69;100.00;99295.31;5071961;28;20001;-80
2023/06/30 04:44:33;;;;;;;;;;;;;;;18.63;100.00;99293.44;5073079;28;19920;-78
2023/06/30 04:46:58;;;;;;;;;;;;;;;18.55;100.00;99296.31;5072794;28;19916;-79
2023/06/30 04:49:24;;;;;;;;;;;;;;;18.55;100.00;99286.44;5072424;28;19931;-79
2023/06/30 04:51:50;;;;;;;;;;;;;;;18.61;100.00;99284.81;5072757;28;19916;-78
2023/06/30 04:54:15;;;;;;;;;;;;;;;18.69;100.00;99279.28;5072240;28;19920;-79
2023/06/30 04:56:40;;;;;;;;;;;;;;;18.72;100.00;99266.34;5072864;28;19916;-78
2023/06/30 04:59:06;;;;;;;;;;;;;;;18.77;100.00;99263.06;5072401;28;19916;-78
2023/06/30 05:01:32;;;;;;;;;;;;;;;18.79;100.00;99271.72;5072862;28;19924;-78
2023/06/30 05:03:58;;;;;;;;;;;;;;;18.80;100.00;99262.66;5068361;28;19923;-78
2023/06/30 05:06:24;;;;;;;;;;;;;;;18.85;100.00;99278.09;5072435;28;19949;-79
2023/06/30 05:08:50;;;;;;;;;;;;;;;18.70;100.00;99272.91;5071436;28;19916;-81
2023/06/30 05:11:15;;;;;;;;;;;;;;;18.66;100.00;99277.03;5071216;28;19920;-80
2023/06/30 05:13:40;;;;;;;;;;;;;;;18.66;100.00;99274.34;5073022;28;19917;-79
2023/06/30 05:16:06;;;;;;;;;;;;;;;18.63;100.00;99275.56;5072101;28;19962;-80
2023/06/30 05:18:31;;;;;;;;;;;;;;;18.79;100.00;99277.06;5072605;28;19916;-78
2023/06/30 05:20:57;;;;;;;;;;;;;;;18.89;100.00;99274.81;5072240;28;20292;-80
2023/06/30 05:23:23;;;;;;;;;;;;;;;19.01;100.00;99275.03;5072024;28;19931;-80
2023/06/30 05:25:50;;;;;;;;;;;;;;;19.11;100.00;99270.94;5069428;28;19939;-80
2023/06/30 05:28:15;;;;;;;;;;;;;;;19.19;100.00;99284.13;5072230;28;19920;-81
2023/06/30 05:30:41;;;;;;;;;;;;;;;19.27;100.00;99291.09;5078445;28;19916;-79
2023/06/30 05:33:06;;;;;;;;;;;;;;;19.36;100.00;99297.09;5072406;28;20432;-82
2023/06/30 05:35:32;;;;;;;;;;;;;;;19.39;100.00;99299.34;5072659;28;20073;-83
2023/06/30 05:37:59;;;;;;;;;;;;;;;19.42;100.00;99304.28;5074003;28;19916;-86
2023/06/30 05:40:25;;;;;;;;;;;;;;;19.47;100.00;99296.50;5073251;28;19973;-83
2023/06/30 05:42:50;;;;;;;;;;;;;;;19.55;100.00;99301.66;5071882;28;19916;-86
2023/06/30 05:45:16;;;;;;;;;;;;;;;19.63;100.00;99290.72;5065292;28;19920;-81
2023/06/30 05:47:42;;;;;;;;;;;;;;;19.65;100.00;99307.41;5064995;28;19921;-79
2023/06/30 05:50:08;;;;;;;;;;;;;;;19.65;100.00;99298.53;5061520;28;19923;-81
2023/06/30 05:52:33;;;;;;;;;;;;;;;19.66;100.00;99314.41;5062732;28;20017;-78
2023/06/30 05:54:59;;;;;;;;;;;;;;;19.61;100.00;99314.22;5071728;28;19939;-81
2023/06/30 05:57:27;;;;;;;;;;;;;;;19.57;100.00;99310.28;5071232;28;19970;-83
2023/06/30 05:59:53;;;;;;;;;;;;;;;19.57;100.00;99312.97;5072370;28;19916;-79
2023/06/30 06:02:19;;;;;;;;;;;;;;;19.66;100.00;99316.25;5070192;28;19917;-80
2023/06/30 06:04:45;;;;;;;;;;;;;;;19.71;100.00;99325.31;5072302;28;19923;-78
2023/06/30 06:07:10;;;;;;;;;;;;;;;19.73;100.00;99328.63;5068006;28;19928;-77
2023/06/30 06:09:35;;;;;;;;;;;;;;;19.71;100.00;99325.31;5069254;28;19924;-79
2023/06/30 06:12:02;;;;;;;;;;;;;;;19.69;100.00;99326.53;5061555;28;19921;-77
2023/06/30 06:14:27;;;;;;;;;;;;;;;19.71;100.00;99335.19;5067773;28;19923;-83
2023/06/30 06:16:53;;;;;;;;;;;;;;;19.79;100.00;99326.97;5074034;28;19964;-84
2023/06/30 06:19:20;;;;;;;;;;;;;;;19.86;100.00;99328.59;5073389;28;19924;-89
2023/06/30 06:21:46;;;;;;;;;;;;;;;19.91;100.00;99331.47;5079250;28;20349;-89
2023/06/30 06:24:12;;;;;;;;;;;;;;;19.93;100.00;99326.72;5077884;28;19923;-88
2023/06/30 06:26:38;;;;;;;;;;;;;;;19.88;100.00;99334.56;5080465;28;19962;-89
2023/06/30 06:29:03;;;;;;;;;;;;;;;19.86;100.00;99327.75;5078818;28;20037;-89
2023/06/30 06:31:30;;;;;;;;;;;;;;;19.82;100.00;99322.00;5080044;28;19917;-88
2023/06/30 06:33:55;;;;;;;;;;;;;;;19.88;100.00;99318.50;5079849;28;19930;-89
2023/06/30 06:36:23;;;;;;;;;;;;;;;19.93;100.00;99313.34;5081716;28;19922;-89
2023/06/30 06:38:49;;;;;;;;;;;;;;;19.84;100.00;99311.09;5079530;28;19960;-89
2023/06/30 06:41:14;;;;;;;;;;;;;;;19.95;100.00;99307.78;5080196;28;19923;-89
2023/06/30 06:43:40;;;;;;;;;;;;;;;19.93;100.00;99307.97;5080153;28;19916;-89
2023/06/30 06:46:05;;;;;;;;;;;;;;;19.73;100.00;99312.56;5079938;28;19920;-88
2023/06/30 06:48:51;;;;;;;;;;;;;;;19.69;100.00;99327.38;5081193;28;19924;-89
2023/06/30 06:51:17;;;;;;;;;;;;;;;19.78;100.00;99328.81;5079812;28;20261;-89
2023/06/30 06:53:42;;;;;;;;;;;;;;;19.78;100.00;99326.13;5080012;28;19916;-89
2023/06/30 06:56:08;;;;;;;;;;;;;;;19.81;100.00;99325.72;5083644;28;19943;-89
2023/06/30 06:58:40;;;;;;;;;;;;;;;19.91;100.00;99328.78;5083993;28;20380;-89
2023/06/30 07:01:07;;;;;;;;;;;;;;;19.93;100.00;99331.25;5077369;28;19924;-89
2023/06/30 07:03:34;;;;;;;;;;;;;;;20.00;100.00;99335.59;5082446;28;19916;-87
2023/06/30 07:06:00;;;;;;;;;;;;;;;20.03;100.00;99339.69;5080147;28;19916;-89
2023/06/30 07:08:28;;;;;;;;;;;;;;;20.09;100.00;99332.69;5085341;28;20273;-89
2023/06/30 07:10:53;;;;;;;;;;;;;;;20.04;100.00;99319.91;5084975;28;19970;-89
2023/06/30 07:13:21;;;;;;;;;;;;;;;19.68;100.00;99312.31;5091695;28;19927;-89
2023/06/30 07:15:47;;;;;;;;;;;;;;;19.79;100.00;99311.69;5094607;28;19920;-88
2023/06/30 07:18:13;;;;;;;;;;;;;;;19.92;100.00;99310.84;5070727;28;19916;-90
2023/06/30 07:20:39;;;;;;;;;;;;;;;19.94;100.00;99304.28;5096902;28;19900;-90
2023/06/30 07:23:04;;;;;;;;;;;;;;;20.02;100.00;99301.38;5093498;28;19934;-89
2023/06/30 07:25:31;;;;;;;;;;;;;;;20.04;100.00;99298.47;5091244;28;19912;-81
2023/06/30 07:28:06;;;;;;;;;;;;;;;20.09;100.00;99298.66;5080191;28;19923;-86
2023/06/30 07:30:36;;;;;;;;;;;;;;;20.06;100.00;99301.78;5090769;28;19959;-84
2023/06/30 07:33:04;;;;;;;;;;;;;;;20.17;100.00;99298.44;5087265;28;19955;-85
2023/06/30 07:35:30;;;;;;;;;;;;;;;20.27;100.00;99308.72;5090873;28;19923;-84
2023/06/30 07:37:55;;;;;;;;;;;;;;;20.36;100.00;99319.03;5085180;28;19920;-85
2023/06/30 07:40:21;;;;;;;;;;;;;;;20.42;100.00;99312.00;5082959;28;20007;-84
2023/06/30 07:42:47;;;;;;;;;;;;;;;20.41;100.00;99308.50;5082946;28;19917;-85
2023/06/30 07:45:14;;;;;;;;;;;;;;;20.48;100.00;99310.34;5081011;28;19917;-84
2023/06/30 07:47:40;;;;;;;;;;;;;;;20.47;100.00;99309.50;5077957;28;19939;-85
2023/06/30 07:50:11;;;;;;;;;;;;;;;20.37;100.00;99304.59;5077463;28;19927;-84
2023/06/30 07:52:52;;;;;;;;;;;;;;;20.26;100.00;99296.38;5068757;28;19956;-84
2023/06/30 07:55:17;;;;;;;;;;;;;;;20.16;100.00;99301.31;5073485;28;19961;-84
2023/06/30 07:57:44;;;;;;;;;;;;;;;20.14;100.00;99292.69;5072397;28;19916;-84
2023/06/30 08:00:15;;;;;;;;;;;;;;;20.23;100.00;99286.06;5073612;28;19916;-86
2023/06/30 08:02:41;;;;;;;;;;;;;;;20.25;100.00;99289.38;5075093;28;19923;-86
2023/06/30 08:05:06;;;;;;;;;;;;;;;20.29;100.00;99290.59;5073472;28;19916;-83
2023/06/30 08:07:33;;;;;;;;;;;;;;;20.33;100.00;99286.47;5075441;28;20010;-83
2023/06/30 08:09:58;;;;;;;;;;;;;;;20.36;100.00;99286.06;5071967;28;20368;-83
2023/06/30 08:12:24;;;;;;;;;;;;;;;20.35;100.00;99279.03;5076692;28;19928;-86
2023/06/30 08:14:49;;;;;;;;;;;;;;;20.35;100.00;99279.03;5076224;28;19916;-85
2023/06/30 08:17:15;;;;;;;;;;;;;;;20.23;100.00;99281.53;5075423;28;19916;-82
2023/06/30 08:19:41;;;;;;;;;;;;;;;19.99;100.00;99277.69;5073893;28;19942;-82
2023/06/30 08:22:07;;;;;;;;;;;;;;;19.86;100.00;99275.03;5073423;28;19923;-82
2023/06/30 08:24:33;;;;;;;;;;;;;;;19.76;100.00;99280.00;5074332;28;19920;-82
2023/06/30 08:26:58;;;;;;;;;;;;;;;19.93;100.00;99278.53;5069449;28;20017;-85
2023/06/30 08:29:24;;;;;;;;;;;;;;;20.06;100.00;99271.50;5070418;28;19927;-82
2023/06/30 08:31:49;;;;;;;;;;;;;;;20.17;100.00;99276.19;5071743;28;19970;-81
2023/06/30 08:34:15;;;;;;;;;;;;;;;20.19;100.00;99284.84;5072935;28;19959;-83
2023/06/30 08:36:42;;;;;;;;;;;;;;;20.19;100.00;99279.50;5070997;28;19921;-84
2023/06/30 08:39:08;;;;;;;;;;;;;;;20.19;100.00;99282.16;5072382;28;19962;-85
2023/06/30 08:41:35;;;;;;;;;;;;;;;20.24;100.00;99282.34;5072221;28;19948;-81
2023/06/30 08:44:01;;;;;;;;;;;;;;;20.26;100.00;99277.63;5071324;28;20376;-82
2023/06/30 08:46:28;;;;;;;;;;;;;;;20.27;100.00;99277.38;5072545;28;19955;-78
2023/06/30 08:48:54;;;;;;;;;;;;;;;20.33;100.00;99276.56;5072562;28;20399;-83
2023/06/30 08:51:20;;;;;;;;;;;;;;;20.36;100.00;99275.34;5066444;28;19920;-78
2023/06/30 08:53:46;;;;;;;;;;;;;;;20.42;100.00;99278.00;5068238;28;20384;-83
2023/06/30 08:56:12;;;;;;;;;;;;;;;20.42;100.00;99279.84;5073302;28;19920;-80
2023/06/30 08:58:38;;;;;;;;;;;;;;;20.41;100.00;99272.84;5075223;28;19940;-83
2023/06/30 09:01:03;;;;;;;;;;;;;;;20.42;100.00;99280.69;5074396;28;19924;-80
2023/06/30 09:03:29;;;;;;;;;;;;;;;20.46;100.00;99285.59;5074253;28;19916;-80
2023/06/30 09:05:56;;;;;;;;;;;;;;;20.51;100.00;99293.81;5073102;28;20011;-79
2023/06/30 09:08:23;;;;;;;;;;;;;;;20.56;100.00;99292.13;5063107;28;19992;-78
2023/06/30 09:10:49;;;;;;;;;;;;;;;20.60;100.00;99293.38;5070768;28;20372;-79
2023/06/30 09:13:17;;;;;;;;;;;;;;;20.67;100.00;99294.19;5067540;28;19916;-78
2023/06/30 09:15:43;;;;;;;;;;;;;;;20.68;100.00;99295.78;5066901;28;20316;-77
2023/06/30 09:18:09;;;;;;;;;;;;;;;20.68;100.00;99289.59;5066982;28;19920;-80
2023/06/30 09:20:36;;;;;;;;;;;;;;;20.73;100.00;99293.31;5063107;28;20323;-79
2023/06/30 09:23:03;;;;;;;;;;;;;;;20.78;100.00;99285.44;5068817;28;20276;-79
2023/06/30 09:25:38;;;;;;;;;;;;;;;20.85;100.00;99283.53;5070437;28;19916;-80
2023/06/30 09:28:14;;;;;;;;;;;;;;;20.93;100.00;99292.38;5068510;28;20270;-76
2023/06/30 09:30:42;;;;;;;;;;;;;;;20.98;100.00;99287.16;5072247;28;20273;-80
2023/06/30 09:33:08;;;;;;;;;;;;;;;20.97;100.00;99278.28;5072325;28;20281;-78
2023/06/30 09:35:47;;;;;;;;;;;;;;;20.97;100.00;99282.88;5074085;28;19920;-78
2023/06/30 09:38:13;;;;;;;;;;;;;;;20.93;100.00;99276.28;5071334;28;19959;-82
2023/06/30 09:40:57;;;;;;;;;;;;;;;20.91;100.00;99281.03;5058712;28;19966;-86
2023/06/30 09:43:23;;;;;;;;;;;;;;;20.91;100.00;99281.84;5077413;28;19920;-86
2023/06/30 09:45:56;;;;;;;;;;;;;;;20.97;100.00;99282.88;5080634;28;20334;-87
2023/06/30 09:48:27;;;;;;;;;;;;;;;21.02;100.00;99281.19;5081039;28;19966;-85
2023/06/30 09:50:53;;;;;;;;;;;;;;;21.04;100.00;99289.81;5081951;28;19912;-86
2023/06/30 09:53:19;;;;;;;;;;;;;;;21.01;100.00;99289.44;5088537;28;19916;-86
2023/06/30 09:55:50;;;;;;;;;;;;;;;21.06;100.00;99287.75;5089601;28;19916;-86
2023/06/30 09:58:17;;;;;;;;;;;;;;;20.97;100.00;99289.03;5088465;28;20055;-87
2023/06/30 10:00:42;;;;;;;;;;;;;;;20.99;100.00;99286.13;5084460;28;20257;-86
2023/06/30 10:03:11;;;;;;;;;;;;;;;20.98;100.00;99284.47;5082690;28;19927;-85
2023/06/30 10:05:37;;;;;;;;;;;;;;;20.98;100.00;99295.22;5081431;28;19996;-87
2023/06/30 10:08:03;;;;;;;;;;;;;;;20.94;100.00;99288.66;5081215;28;19916;-87
2023/06/30 10:10:29;;;;;;;;;;;;;;;20.92;100.00;99285.34;5072789;28;19938;-87
2023/06/30 10:12:58;;;;;;;;;;;;;;;20.94;100.00;99288.66;5082403;28;19987;-86
2023/06/30 10:15:24;;;;;;;;;;;;;;;21.04;100.00;99287.13;5084981;28;19938;-87
2023/06/30 10:17:50;;;;;;;;;;;;;;;21.07;100.00;99293.94;5080723;28;19917;-89
2023/06/30 10:20:17;;;;;;;;;;;;;;;21.13;100.00;99288.53;5079475;28;19950;-87
2023/06/30 10:22:43;;;;;;;;;;;;;;;21.17;100.00;99284.41;5079845;28;19917;-89
2023/06/30 10:25:10;;;;;;;;;;;;;;;21.19;100.00;99286.88;5081401;28;19919;-91
2023/06/30 10:27:37;;;;;;;;;;;;;;;21.16;100.00;99287.28;5078318;28;19920;-88
2023/06/30 10:30:03;;;;;;;;;;;;;;;21.17;100.00;99279.03;5080887;28;19916;-89
2023/06/30 10:32:28;;;;;;;;;;;;;;;21.17;100.00;99284.41;5087486;28;19913;-88
2023/06/30 10:34:54;;;;;;;;;;;;;;;21.27;100.00;99283.91;5089292;28;19916;-88
2023/06/30 10:37:20;;;;;;;;;;;;;;;21.26;100.00;99282.28;5088537;28;20297;-87
2023/06/30 10:39:46;;;;;;;;;;;;;;;21.34;100.00;99289.22;5088111;28;19927;-91
2023/06/30 10:42:12;;;;;;;;;;;;;;;21.42;100.00;99292.47;5087305;28;19963;-83
2023/06/30 10:44:38;;;;;;;;;;;;;;;21.45;100.00;99288.50;5074387;28;19913;-88
2023/06/30 10:47:04;;;;;;;;;;;;;;;21.50;100.00;99284.13;5084858;28;19916;-88
2023/06/30 10:49:34;;;;;;;;;;;;;;;21.54;100.00;99285.34;5089739;28;20000;-86
2023/06/30 10:52:03;;;;;;;;;;;;;;;21.56;100.00;99283.25;5075480;28;19913;-86
2023/06/30 10:54:52;;;;;;;;;;;;;;;21.64;100.00;99288.34;5083739;28;19923;-90
2023/06/30 10:57:19;;;;;;;;;;;;;;;21.57;100.00;99284.88;5069763;28;19912;-83
2023/06/30 10:59:46;;;;;;;;;;;;;;;21.56;100.00;99287.78;5086638;28;20323;-86
2023/06/30 11:02:11;;;;;;;;;;;;;;;21.58;100.00;99288.41;5087774;28;19927;-88
2023/06/30 11:04:38;;;;;;;;;;;;;;;21.62;100.00;99293.09;5088523;28;19916;-88
2023/06/30 11:07:05;;;;;;;;;;;;;;;21.64;100.00;99285.66;5087059;28;19920;-91
2023/06/30 11:09:46;;;;;;;;;;;;;;;21.65;100.00;99284.63;5087233;28;20390;-89
2023/06/30 11:12:14;;;;;;;;;;;;;;;21.61;100.00;99278.06;5087858;28;19916;-89
2023/06/30 11:14:49;;;;;;;;;;;;;;;21.67;100.00;99283.59;5070929;28;19912;-89
2023/06/30 11:17:15;;;;;;;;;;;;;;;21.69;100.00;99276.09;5089865;28;19916;-89
2023/06/30 11:19:54;;;;;;;;;;;;;;;21.69;100.00;99276.94;5089158;28;19946;-89
2023/06/30 11:22:30;;;;;;;;;;;;;;;21.68;100.00;99275.28;5085449;28;19917;-89
2023/06/30 11:24:55;;;;;;;;;;;;;;;21.70;100.00;99272.38;5084416;28;19923;-88
2023/06/30 11:27:21;;;;;;;;;;;;;;;21.73;100.00;99278.16;5085584;28;19920;-89
2023/06/30 11:29:52;;;;;;;;;;;;;;;21.71;100.00;99276.72;5081503;28;19912;-89
2023/06/30 11:32:28;;;;;;;;;;;;;;;21.76;100.00;99276.88;5065429;28;19943;-89
2023/06/30 11:34:54;;;;;;;;;;;;;;;21.80;100.00;99272.69;5085330;28;19922;-89
2023/06/30 11:37:20;;;;;;;;;;;;;;;21.83;100.00;99272.25;5085047;28;19916;-88
2023/06/30 11:39:55;;;;;;;;;;;;;;;21.83;100.00;99277.63;5084528;28;19959;-89
2023/06/30 11:42:21;;;;;;;;;;;;;;;21.87;100.00;99268.09;5089201;28;19942;-88
2023/06/30 11:44:48;;;;;;;;;;;;;;;21.84;100.00;99266.69;5089978;28;19916;-89
2023/06/30 11:47:14;;;;;;;;;;;;;;;21.91;100.00;99264.72;5089704;28;20004;-89
2023/06/30 11:49:39;;;;;;;;;;;;;;;21.86;100.00;99269.13;5072433;28;19916;-89
2023/06/30 11:52:05;;;;;;;;;;;;;;;21.87;100.00;99268.09;5071414;28;19927;-88
2023/06/30 11:54:35;;;;;;;;;;;;;;;21.78;100.00;99264.06;5078349;28;19938;-88
2023/06/30 11:57:00;;;;;;;;;;;;;;;21.80;100.00;99259.25;5081823;28;19971;-89
2023/06/30 11:59:26;;;;;;;;;;;;;;;21.65;100.00;99255.09;5082285;28;19927;-88
2023/06/30 12:01:52;;;;;;;;;;;;;;;21.76;100.00;99258.06;5081619;28;19916;-89
2023/06/30 12:04:17;;;;;;;;;;;;;;;21.75;100.00;99253.75;5065122;28;19916;-89
2023/06/30 12:06:43;;;;;;;;;;;;;;;21.76;100.00;99247.34;5081226;28;20372;-89
2023/06/30 12:09:09;;;;;;;;;;;;;;;21.77;100.00;99246.28;5081362;28;19952;-90
2023/06/30 12:11:35;;;;;;;;;;;;;;;21.71;100.00;99239.13;5079763;28;20441;-90
2023/06/30 12:14:06;;;;;;;;;;;;;;;21.72;100.00;99240.78;5075061;28;19916;-90
2023/06/30 12:16:39;;;;;;;;;;;;;;;21.68;100.00;99237.69;5074286;28;19960;-86
2023/06/30 12:19:05;;;;;;;;;;;;;;;21.61;100.00;99243.16;5070279;28;19921;-83
2023/06/30 12:21:33;;;;;;;;;;;;;;;21.61;100.00;99236.97;5073579;28;19967;-84
2023/06/30 12:24:04;;;;;;;;;;;;;;;21.52;100.00;99233.72;5073110;28;19916;-83
2023/06/30 12:26:30;;;;;;;;;;;;;;;21.53;100.00;99234.53;5069774;28;19916;-83
2023/06/30 12:29:03;;;;;;;;;;;;;;;21.43;100.00;99232.38;5076878;28;19921;-87
2023/06/30 12:31:31;;;;;;;;;;;;;;;21.48;100.00;99231.72;5079275;28;20269;-82
2023/06/30 12:33:56;;;;;;;;;;;;;;;21.49;100.00;99228.81;5079358;28;19927;-85
2023/06/30 12:36:22;;;;;;;;;;;;;;;21.49;100.00;99233.34;5080238;28;19916;-87